Time;durP1;ratioP1;P1;durP2;ratioP2;P2;SDS_P1;SDS_P2;PMS_P1;PMS_P2;Temp;Humidity;BMP_temperature;BMP_pressure;BME280_temperature;BME280_humidity;BME280_pressure;Samples;Min_cycle;Max_cycle;Signal;HPM_P1;HPM_P2
2022/01/08 00:01:00;;;;;;;;;;;;;;;;;;5073071;28;20083;-61
2022/01/08 00:03:26;;;;;;;;;;;;;;;;;;5094823;28;19993;-61
2022/01/08 00:05:52;;;;;;;;;;;;;;;;;;5094619;28;20428;-60
2022/01/08 00:08:17;;;;;;;;;;;;;;;;;;5095039;28;20360;-61
2022/01/08 00:10:42;;;;;;;;;;;;;;;;;;5094724;28;20017;-61
2022/01/08 00:13:08;;;;;;;;;;;;;;;;;;5095012;28;19985;-60
2022/01/08 00:15:33;;;;;;;;;;;;;;;;;;5094765;28;20401;-59
2022/01/08 00:17:58;;;;;;;;;;;;;;;;;;5094759;28;20507;-60
2022/01/08 00:20:24;;;;;;;;;;;;;;;;;;5094636;28;20545;-60
2022/01/08 00:22:51;;;;;;;;;;;;;;;;;;5094632;28;20410;-60
2022/01/08 00:25:17;;;;;;;;;;;;;;;;;;5094644;28;20039;-60
2022/01/08 00:27:42;;;;;;;;;;;;;;;;;;5094645;28;19988;-60
2022/01/08 00:30:07;;;;;;;;;;;;;;;;;;5095066;28;20001;-59
2022/01/08 00:32:32;;;;;;;;;;;;;;;;;;5094661;28;20028;-62
2022/01/08 00:34:58;;;;;;;;;;;;;;;;;;5094376;28;20083;-60
2022/01/08 00:37:23;;;;;;;;;;;;;;;;;;5094459;28;20382;-60
2022/01/08 00:39:48;;;;;;;;;;;;;;;;;;5094562;28;19992;-61
2022/01/08 00:42:14;;;;;;;;;;;;;;;;;;5093836;28;20037;-61
2022/01/08 00:44:40;;;;;;;;;;;;;;;;;;5093789;28;19993;-60
2022/01/08 00:47:05;;;;;;;;;;;;;;;;;;5093442;28;20440;-60
2022/01/08 00:49:30;;;;;;;;;;;;;;;;;;5093929;28;20368;-61
2022/01/08 00:51:55;;;;;;;;;;;;;;;;;;5094151;28;20009;-60
2022/01/08 00:54:21;;;;;;;;;;;;;;;;;;5094335;28;20113;-60
2022/01/08 00:56:46;;;;;;;;;;;;;;;;;;5094114;28;20468;-60
2022/01/08 00:59:11;;;;;;;;;;;;;;;;;;5093376;28;19995;-59
2022/01/08 01:01:36;;;;;;;;;;;;;;;;;;5075574;28;20047;-60
2022/01/08 01:04:02;;;;;;;;;;;;;;;;;;5093803;28;20107;-60
2022/01/08 01:06:27;;;;;;;;;;;;;;;;;;5093859;28;20000;-60
2022/01/08 01:08:52;;;;;;;;;;;;;;;;;;5093912;28;20081;-61
2022/01/08 01:11:17;;;;;;;;;;;;;;;;;;5093766;28;20103;-61
2022/01/08 01:13:43;;;;;;;;;;;;;;;;;;5093918;28;20046;-62
2022/01/08 01:16:08;;;;;;;;;;;;;;;;;;5093735;28;19995;-60
2022/01/08 01:18:35;;;;;;;;;;;;;;;;;;5093730;28;20349;-61
2022/01/08 01:21:00;;;;;;;;;;;;;;;;;;5093416;28;20041;-59
2022/01/08 01:23:31;;;;;;;;;;;;;;;;;;5093647;28;20440;-60
2022/01/08 01:26:01;;;;;;;;;;;;;;;;;;5093687;28;19992;-61
2022/01/08 01:41:46;;;;;;;;;;;;;;;;;;5093426;28;20459;-60
2022/01/08 01:49:20;;;;;;;;;;;;;;;;;;5093313;28;19988;-59
2022/01/08 01:51:45;;;;;;;;;;;;;;;;;;5093044;28;20537;-60
2022/01/08 01:54:11;;;;;;;;;;;;;;;;;;5093171;28;20039;-61
2022/01/08 01:56:36;;;;;;;;;;;;;;;;;;5093181;28;20337;-61
2022/01/08 01:59:01;;;;;;;;;;;;;;;;;;5093147;28;19993;-60
2022/01/08 02:01:26;;;;;;;;;;;;;;;;;;5092864;28;20130;-60
2022/01/08 02:03:53;;;;;;;;;;;;;;;;;;5093044;28;20396;-60
2022/01/08 02:06:18;;;;;;;;;;;;;;;;;;5092335;28;20076;-61
2022/01/08 02:08:43;;;;;;;;;;;;;;;;;;5093451;28;20499;-61
2022/01/08 02:11:09;;;;;;;;;;;;;;;;;;5092742;28;20008;-60
2022/01/08 02:13:34;;;;;;;;;;;;;;;;;;5093454;28;20428;-59
2022/01/08 02:16:01;;;;;;;;;;;;;;;;;;5093084;28;20410;-60
2022/01/08 02:18:26;;;;;;;;;;;;;;;;;;5093087;28;20084;-59
2022/01/08 02:20:51;;;;;;;;;;;;;;;;;;5092911;28;20442;-60
2022/01/08 02:23:17;;;;;;;;;;;;;;;;;;5093154;28;19993;-60
2022/01/08 02:25:42;;;;;;;;;;;;;;;;;;5092758;28;20087;-61
2022/01/08 02:28:07;;;;;;;;;;;;;;;;;;5093011;28;20019;-61
2022/01/08 02:30:32;;;;;;;;;;;;;;;;;;5093020;28;20012;-60
2022/01/08 02:32:58;;;;;;;;;;;;;;;;;;5074760;28;20057;-60
2022/01/08 02:35:23;;;;;;;;;;;;;;;;;;5092828;28;19993;-60
2022/01/08 02:37:48;;;;;;;;;;;;;;;;;;5092793;28;20436;-60
2022/01/08 02:40:14;;;;;;;;;;;;;;;;;;5092604;28;19993;-61
2022/01/08 02:42:49;;;;;;;;;;;;;;;;;;5092603;28;19989;-60
2022/01/08 02:45:15;;;;;;;;;;;;;;;;;;5092640;28;20455;-61
2022/01/08 02:47:40;;;;;;;;;;;;;;;;;;5092645;28;19997;-61
2022/01/08 02:50:05;;;;;;;;;;;;;;;;;;5092697;28;19988;-59
2022/01/08 02:52:30;;;;;;;;;;;;;;;;;;5074480;28;20019;-60
2022/01/08 02:54:56;;;;;;;;;;;;;;;;;;5092178;28;20436;-60
2022/01/08 02:57:21;;;;;;;;;;;;;;;;;;5092370;28;20071;-60
2022/01/08 02:59:46;;;;;;;;;;;;;;;;;;5092343;28;19992;-60
2022/01/08 03:02:12;;;;;;;;;;;;;;;;;;5092291;28;20064;-61
2022/01/08 03:04:38;;;;;;;;;;;;;;;;;;5092792;28;20012;-60
2022/01/08 03:07:03;;;;;;;;;;;;;;;;;;5092446;28;20038;-60
2022/01/08 03:09:29;;;;;;;;;;;;;;;;;;5092225;28;20079;-61
2022/01/08 03:11:55;;;;;;;;;;;;;;;;;;5092106;28;20055;-60
2022/01/08 03:14:20;;;;;;;;;;;;;;;;;;5092512;28;20020;-59
2022/01/08 03:16:45;;;;;;;;;;;;;;;;;;5093099;28;20042;-59
2022/01/08 03:19:11;;;;;;;;;;;;;;;;;;5096059;28;19998;-60
2022/01/08 03:21:38;;;;;;;;;;;;;;;;;;5095748;28;19985;-60
2022/01/08 03:24:06;;;;;;;;;;;;;;;;;;5095628;28;19993;-61
2022/01/08 03:26:31;;;;;;;;;;;;;;;;;;5095521;28;19996;-60
2022/01/08 03:28:56;;;;;;;;;;;;;;;;;;5095598;28;19993;-61
2022/01/08 03:31:22;;;;;;;;;;;;;;;;;;5095221;28;20011;-61
2022/01/08 03:33:47;;;;;;;;;;;;;;;;;;5095519;28;20516;-61
2022/01/08 03:36:12;;;;;;;;;;;;;;;;;;5095653;28;19993;-61
2022/01/08 03:38:37;;;;;;;;;;;;;;;;;;5095453;28;20015;-61
2022/01/08 03:41:03;;;;;;;;;;;;;;;;;;5095202;28;19989;-60
2022/01/08 03:43:28;;;;;;;;;;;;;;;;;;5095604;28;19996;-60
2022/01/08 03:45:53;;;;;;;;;;;;;;;;;;5095362;28;20392;-60
2022/01/08 03:51:02;;;;;;;;;;;;;;;;;;5095225;28;20046;-60
2022/01/08 03:53:27;;;;;;;;;;;;;;;;;;5094986;28;20522;-61
2022/01/08 03:55:53;;;;;;;;;;;;;;;;;;5095029;28;19993;-61
2022/01/08 03:58:18;;;;;;;;;;;;;;;;;;5095057;28;20014;-61
2022/01/08 04:00:44;;;;;;;;;;;;;;;;;;5095140;28;19989;-62
2022/01/08 04:03:09;;;;;;;;;;;;;;;;;;5081727;28;20360;-61
2022/01/08 04:05:34;;;;;;;;;;;;;;;;;;5070706;28;20012;-64
2022/01/08 04:07:59;;;;;;;;;;;;;;;;;;5070727;28;20035;-62
2022/01/08 04:10:25;;;;;;;;;;;;;;;;;;5071199;28;20123;-59
2022/01/08 04:12:55;;;;;;;;;;;;;;;;;;5070945;28;19996;-61
2022/01/08 04:17:46;;;;;;;;;;;;;;;;;;5071062;28;20579;-61
2022/01/08 04:20:11;;;;;;;;;;;;;;;;;;5070728;28;19989;-61
2022/01/08 04:22:36;;;;;;;;;;;;;;;;;;5070639;28;19990;-61
2022/01/08 04:25:01;;;;;;;;;;;;;;;;;;5070199;28;19994;-61
2022/01/08 04:27:27;;;;;;;;;;;;;;;;;;5070566;28;19991;-61
2022/01/08 04:29:52;;;;;;;;;;;;;;;;;;5069948;28;19989;-61
2022/01/08 04:32:17;;;;;;;;;;;;;;;;;;5070206;28;20009;-61
2022/01/08 04:34:42;;;;;;;;;;;;;;;;;;5070034;28;20000;-64
2022/01/08 04:37:10;;;;;;;;;;;;;;;;;;5070685;28;19993;-59
2022/01/08 04:39:35;;;;;;;;;;;;;;;;;;5070066;28;20032;-59
2022/01/08 04:42:01;;;;;;;;;;;;;;;;;;5070481;28;20040;-60
2022/01/08 04:44:26;;;;;;;;;;;;;;;;;;5070318;28;19993;-61
2022/01/08 04:46:51;;;;;;;;;;;;;;;;;;5070297;28;20096;-60
2022/01/08 04:49:16;;;;;;;;;;;;;;;;;;5070174;28;19993;-60
2022/01/08 04:51:42;;;;;;;;;;;;;;;;;;5070000;28;20476;-61
2022/01/08 04:54:07;;;;;;;;;;;;;;;;;;5051841;28;20001;-61
2022/01/08 04:56:32;;;;;;;;;;;;;;;;;;5070051;28;19996;-60
2022/01/08 04:58:58;;;;;;;;;;;;;;;;;;5051989;28;19993;-61
2022/01/08 05:01:23;;;;;;;;;;;;;;;;;;5070071;28;20513;-60
2022/01/08 05:03:48;;;;;;;;;;;;;;;;;;5069824;28;20021;-62
2022/01/08 05:06:14;;;;;;;;;;;;;;;;;;5070257;28;20052;-59
2022/01/08 05:08:39;;;;;;;;;;;;;;;;;;5069445;28;20072;-60
2022/01/08 05:11:04;;;;;;;;;;;;;;;;;;5069721;28;20016;-61
2022/01/08 05:13:29;;;;;;;;;;;;;;;;;;5069680;28;19996;-61
2022/01/08 05:15:55;;;;;;;;;;;;;;;;;;5069583;28;20519;-63
2022/01/08 05:18:22;;;;;;;;;;;;;;;;;;5070015;28;20032;-61
2022/01/08 05:20:52;;;;;;;;;;;;;;;;;;5069325;28;19993;-60
2022/01/08 05:23:17;;;;;;;;;;;;;;;;;;5069573;28;20028;-60
2022/01/08 05:25:42;;;;;;;;;;;;;;;;;;5069474;28;20040;-61
2022/01/08 05:28:08;;;;;;;;;;;;;;;;;;5069820;28;20043;-60
2022/01/08 05:30:33;;;;;;;;;;;;;;;;;;5051000;28;20478;-61
2022/01/08 05:32:58;;;;;;;;;;;;;;;;;;5069612;28;19993;-60
2022/01/08 05:35:23;;;;;;;;;;;;;;;;;;5069367;28;19996;-61
2022/01/08 05:37:49;;;;;;;;;;;;;;;;;;5069567;28;20021;-60
2022/01/08 05:40:14;;;;;;;;;;;;;;;;;;5068233;28;19989;-60
2022/01/08 05:42:39;;;;;;;;;;;;;;;;;;5069053;28;20352;-60
2022/01/08 05:45:04;;;;;;;;;;;;;;;;;;5069360;28;19993;-60
2022/01/08 05:47:32;;;;;;;;;;;;;;;;;;5069469;28;20043;-60
2022/01/08 05:49:57;;;;;;;;;;;;;;;;;;5069162;28;20448;-63
2022/01/08 05:52:22;;;;;;;;;;;;;;;;;;5069698;28;20020;-60
2022/01/08 05:54:48;;;;;;;;;;;;;;;;;;5050958;28;19993;-60
2022/01/08 05:57:13;;;;;;;;;;;;;;;;;;5069105;28;20000;-60
2022/01/08 05:59:38;;;;;;;;;;;;;;;;;;5069258;28;19985;-60
2022/01/08 06:02:03;;;;;;;;;;;;;;;;;;5083217;28;20036;-60
2022/01/08 06:04:29;;;;;;;;;;;;;;;;;;5088276;28;20009;-59
2022/01/08 06:06:54;;;;;;;;;;;;;;;;;;5088975;28;20423;-59
2022/01/08 06:09:19;;;;;;;;;;;;;;;;;;5088934;28;20075;-60
2022/01/08 06:11:44;;;;;;;;;;;;;;;;;;5070459;28;20019;-61
2022/01/08 06:14:10;;;;;;;;;;;;;;;;;;5089347;28;19996;-59
2022/01/08 06:16:37;;;;;;;;;;;;;;;;;;5088036;28;20363;-63
2022/01/08 06:19:02;;;;;;;;;;;;;;;;;;5088721;28;19993;-61
2022/01/08 06:21:27;;;;;;;;;;;;;;;;;;5087859;28;19995;-59
2022/01/08 06:23:53;;;;;;;;;;;;;;;;;;5086811;28;20000;-60
2022/01/08 06:26:18;;;;;;;;;;;;;;;;;;5067357;28;20019;-60
2022/01/08 06:28:44;;;;;;;;;;;;;;;;;;5086379;28;20015;-61
2022/01/08 06:31:09;;;;;;;;;;;;;;;;;;5086841;28;20030;-61
2022/01/08 06:33:35;;;;;;;;;;;;;;;;;;5086693;28;20428;-64
2022/01/08 06:36:00;;;;;;;;;;;;;;;;;;5079645;28;20003;-61
2022/01/08 06:38:25;;;;;;;;;;;;;;;;;;5068587;28;19996;-61
2022/01/08 06:40:51;;;;;;;;;;;;;;;;;;5067956;28;20047;-64
2022/01/08 06:43:16;;;;;;;;;;;;;;;;;;5081952;28;20014;-60
2022/01/08 06:45:41;;;;;;;;;;;;;;;;;;5088313;28;19993;-61
2022/01/08 06:48:06;;;;;;;;;;;;;;;;;;5088247;28;19996;-61
2022/01/08 06:50:32;;;;;;;;;;;;;;;;;;5088780;28;20095;-63
2022/01/08 06:52:57;;;;;;;;;;;;;;;;;;5091152;28;19989;-61
2022/01/08 06:55:22;;;;;;;;;;;;;;;;;;5073920;28;20003;-63
2022/01/08 06:57:48;;;;;;;;;;;;;;;;;;5092310;28;19996;-61
2022/01/08 07:00:13;;;;;;;;;;;;;;;;;;5074666;28;19993;-61
2022/01/08 07:02:38;;;;;;;;;;;;;;;;;;5091806;28;19996;-61
2022/01/08 07:05:03;;;;;;;;;;;;;;;;;;5091944;28;20095;-62
2022/01/08 07:07:29;;;;;;;;;;;;;;;;;;5092196;28;20001;-60
2022/01/08 07:09:54;;;;;;;;;;;;;;;;;;5091884;28;20024;-61
2022/01/08 07:12:19;;;;;;;;;;;;;;;;;;5091643;28;20484;-61
2022/01/08 07:14:44;;;;;;;;;;;;;;;;;;5091725;28;20075;-61
2022/01/08 07:17:10;;;;;;;;;;;;;;;;;;5091865;28;19993;-62
2022/01/08 07:19:35;;;;;;;;;;;;;;;;;;5091070;28;20455;-64
2022/01/08 07:22:00;;;;;;;;;;;;;;;;;;5090863;28;20004;-60
2022/01/08 07:24:26;;;;;;;;;;;;;;;;;;5091279;28;20107;-61
2022/01/08 07:26:51;;;;;;;;;;;;;;;;;;5090697;28;20362;-61
2022/01/08 07:29:16;;;;;;;;;;;;;;;;;;5091859;28;19993;-61
2022/01/08 07:31:41;;;;;;;;;;;;;;;;;;5091494;28;20013;-61
2022/01/08 07:34:07;;;;;;;;;;;;;;;;;;5085955;28;19994;-60
2022/01/08 07:36:32;;;;;;;;;;;;;;;;;;5070166;28;20445;-65
2022/01/08 07:38:57;;;;;;;;;;;;;;;;;;5071187;28;20043;-61
2022/01/08 07:41:22;;;;;;;;;;;;;;;;;;5071177;28;19997;-61
2022/01/08 07:43:48;;;;;;;;;;;;;;;;;;5069570;28;20449;-62
2022/01/08 07:46:13;;;;;;;;;;;;;;;;;;5071442;28;20135;-61
2022/01/08 07:48:40;;;;;;;;;;;;;;;;;;5070127;28;19997;-62
2022/01/08 07:51:05;;;;;;;;;;;;;;;;;;5070885;28;20009;-62
2022/01/08 07:53:30;;;;;;;;;;;;;;;;;;5071290;28;20008;-61
2022/01/08 07:55:56;;;;;;;;;;;;;;;;;;5083416;28;20000;-63
2022/01/08 07:58:21;;;;;;;;;;;;;;;;;;5090970;28;19997;-61
2022/01/08 08:00:47;;;;;;;;;;;;;;;;;;5091048;28;19995;-61
2022/01/08 08:03:13;;;;;;;;;;;;;;;;;;5090297;28;20319;-59
2022/01/08 08:05:38;;;;;;;;;;;;;;;;;;5090853;28;20011;-61
2022/01/08 08:08:03;;;;;;;;;;;;;;;;;;5090857;28;20337;-60
2022/01/08 08:10:29;;;;;;;;;;;;;;;;;;5089505;28;19997;-60
2022/01/08 08:12:57;;;;;;;;;;;;;;;;;;5090697;28;20024;-60
2022/01/08 08:15:22;;;;;;;;;;;;;;;;;;5091071;28;20414;-61
2022/01/08 08:17:47;;;;;;;;;;;;;;;;;;5089707;28;20470;-61
2022/01/08 08:20:13;;;;;;;;;;;;;;;;;;5090774;28;20000;-61
2022/01/08 08:22:38;;;;;;;;;;;;;;;;;;5090744;28;20008;-59
2022/01/08 08:25:03;;;;;;;;;;;;;;;;;;5090795;28;20007;-61
2022/01/08 08:27:29;;;;;;;;;;;;;;;;;;5090628;28;19992;-60
2022/01/08 08:29:55;;;;;;;;;;;;;;;;;;5090601;28;19996;-60
2022/01/08 08:32:20;;;;;;;;;;;;;;;;;;5089796;28;20159;-61
2022/01/08 08:34:45;;;;;;;;;;;;;;;;;;5087838;28;20000;-61
2022/01/08 08:37:10;;;;;;;;;;;;;;;;;;5088722;28;19989;-60
2022/01/08 08:39:36;;;;;;;;;;;;;;;;;;5089875;28;20074;-60
2022/01/08 08:42:01;;;;;;;;;;;;;;;;;;5089123;28;20636;-60
2022/01/08 08:44:27;;;;;;;;;;;;;;;;;;5069704;28;20112;-61
2022/01/08 08:46:52;;;;;;;;;;;;;;;;;;5088657;28;19996;-61
2022/01/08 08:49:17;;;;;;;;;;;;;;;;;;5088504;28;19989;-61
2022/01/08 08:51:42;;;;;;;;;;;;;;;;;;5070204;28;20048;-61
2022/01/08 08:54:08;;;;;;;;;;;;;;;;;;5088587;28;20075;-60
2022/01/08 08:56:33;;;;;;;;;;;;;;;;;;5088529;28;19993;-61
2022/01/08 08:58:58;;;;;;;;;;;;;;;;;;5090183;28;19989;-61
2022/01/08 09:01:23;;;;;;;;;;;;;;;;;;5090571;28;19998;-61
2022/01/08 09:03:49;;;;;;;;;;;;;;;;;;5090061;28;20356;-61
2022/01/08 09:06:14;;;;;;;;;;;;;;;;;;5089944;28;19996;-61
2022/01/08 09:08:39;;;;;;;;;;;;;;;;;;5089768;28;19989;-61
2022/01/08 09:11:04;;;;;;;;;;;;;;;;;;5089728;28;20015;-61
2022/01/08 09:13:30;;;;;;;;;;;;;;;;;;5089880;28;20047;-61
2022/01/08 09:15:56;;;;;;;;;;;;;;;;;;5089794;28;20020;-60
2022/01/08 09:18:21;;;;;;;;;;;;;;;;;;5089949;28;20003;-62
2022/01/08 09:20:46;;;;;;;;;;;;;;;;;;5089524;28;19996;-60
2022/01/08 09:23:11;;;;;;;;;;;;;;;;;;5089825;28;19992;-60
2022/01/08 09:25:37;;;;;;;;;;;;;;;;;;5089772;28;19989;-61
2022/01/08 09:28:02;;;;;;;;;;;;;;;;;;5089538;28;20001;-61
2022/01/08 09:30:27;;;;;;;;;;;;;;;;;;5089318;28;20004;-62
2022/01/08 09:32:52;;;;;;;;;;;;;;;;;;5089560;28;20004;-61
2022/01/08 09:35:18;;;;;;;;;;;;;;;;;;5089950;28;20012;-60
2022/01/08 09:37:43;;;;;;;;;;;;;;;;;;5089651;28;19993;-60
2022/01/08 09:40:08;;;;;;;;;;;;;;;;;;5089676;28;20084;-61
2022/01/08 09:42:33;;;;;;;;;;;;;;;;;;5087620;28;20035;-61
2022/01/08 09:44:59;;;;;;;;;;;;;;;;;;5089169;28;20432;-61
2022/01/08 09:47:24;;;;;;;;;;;;;;;;;;5089587;28;20444;-61
2022/01/08 09:49:50;;;;;;;;;;;;;;;;;;5087726;28;19997;-61
2022/01/08 09:52:15;;;;;;;;;;;;;;;;;;5086663;28;20008;-60
2022/01/08 09:54:40;;;;;;;;;;;;;;;;;;5087249;28;20103;-60
2022/01/08 09:57:06;;;;;;;;;;;;;;;;;;5087499;28;19989;-60
2022/01/08 09:59:31;;;;;;;;;;;;;;;;;;5087171;28;19989;-61
2022/01/08 10:01:56;;;;;;;;;;;;;;;;;;5087225;28;19993;-61
2022/01/08 10:04:21;;;;;;;;;;;;;;;;;;5087469;28;20051;-61
2022/01/08 10:06:47;;;;;;;;;;;;;;;;;;5087048;28;19989;-61
2022/01/08 10:09:12;;;;;;;;;;;;;;;;;;5087108;28;20004;-60
2022/01/08 10:11:37;;;;;;;;;;;;;;;;;;5086338;28;20009;-61
2022/01/08 10:14:06;;;;;;;;;;;;;;;;;;5085391;28;20495;-61
2022/01/08 10:19:15;;;;;;;;;;;;;;;;;;5088550;28;19993;-61
2022/01/08 10:21:40;;;;;;;;;;;;;;;;;;5088397;28;20111;-61
2022/01/08 10:24:08;;;;;;;;;;;;;;;;;;5088217;28;20023;-60
2022/01/08 10:26:33;;;;;;;;;;;;;;;;;;5086008;28;19996;-62
2022/01/08 10:28:58;;;;;;;;;;;;;;;;;;5087286;28;20092;-60
2022/01/08 10:31:23;;;;;;;;;;;;;;;;;;5087030;28;20016;-61
2022/01/08 10:33:49;;;;;;;;;;;;;;;;;;5087540;28;19989;-61
2022/01/08 10:36:14;;;;;;;;;;;;;;;;;;5088001;28;19993;-61
2022/01/08 10:38:39;;;;;;;;;;;;;;;;;;5087911;28;20004;-60
2022/01/08 10:41:05;;;;;;;;;;;;;;;;;;5088456;28;20046;-60
2022/01/08 10:43:30;;;;;;;;;;;;;;;;;;5088699;28;19993;-60
2022/01/08 10:45:55;;;;;;;;;;;;;;;;;;5087714;28;19997;-60
2022/01/08 10:48:20;;;;;;;;;;;;;;;;;;5088964;28;20041;-60
2022/01/08 10:50:46;;;;;;;;;;;;;;;;;;5087251;28;20359;-60
2022/01/08 10:53:11;;;;;;;;;;;;;;;;;;5087160;28;19996;-60
2022/01/08 10:55:36;;;;;;;;;;;;;;;;;;5084745;28;20741;-64
2022/01/08 10:58:01;;;;;;;;;;;;;;;;;;5069594;28;19993;-62
2022/01/08 11:01:52;;;;;;;0.88;0.77;;;;;;;;;;5147358;27;20395;-70
2022/01/08 11:04:19;;;;;;;3.85;1.83;;;;;;;;;;5119791;28;20061;-69
2022/01/08 11:06:48;;;;;;;1.25;1.02;;;;;;;;;;5070530;28;20372;-70
2022/01/08 11:09:14;;;;;;;0.30;0.30;;;;;;;;;;5105906;28;20067;-69
2022/01/08 11:11:40;;;;;;;0.30;0.30;;;;;;;;;;5105655;28;20066;-70
2022/01/08 11:14:08;;;;;;;0.57;0.55;;;;;;;;;;5087031;28;20032;-70
2022/01/08 11:16:37;;;;;;;0.90;0.82;;;;;;;;;;5068045;28;20475;-70
2022/01/08 11:19:03;;;;;;;3.45;2.28;;;;;;;;;;5062228;28;20032;-70
2022/01/08 11:21:30;;;;;;;1.23;1.08;;;;;;;;;;5051944;28;20123;-71
2022/01/08 11:23:57;;;;;;;1.15;0.70;;;;;;;;;;5083018;28;20040;-70
2022/01/08 11:26:23;;;;;;;2.58;1.38;;;;;;;;;;5065147;28;20035;-70
2022/01/08 11:28:49;;;;;;;2.15;1.17;;;;;;;;;;5082927;28;20391;-70
2022/01/08 11:31:15;;;;;;;3.63;2.30;;;;;;;;;;5066383;28;20031;-70
2022/01/08 11:33:44;;;;;;;1.25;1.15;;;;;;;;;;5066472;28;20831;-70
2022/01/08 11:36:10;;;;;;;0.70;0.70;;;;;;;;;;5050262;28;20032;-70
2022/01/08 11:38:36;;;;;;;4.93;2.80;;;;;;;;;;5050149;28;20032;-70
2022/01/08 11:41:02;;;;;;;0.90;0.85;;;;;;;;;;5066860;28;20110;-70
2022/01/08 11:43:28;;;;;;;3.05;2.10;;;;;;;;;;5066836;28;20028;-71
2022/01/08 11:45:57;;;;;;;3.10;1.85;;;;;;;;;;5050186;28;20036;-72
2022/01/08 11:48:29;;;;;;;2.22;2.03;;;;;;;;;;5050051;28;20090;-71
2022/01/08 11:50:56;;;;;;;4.97;3.17;;;;;;;;;;5083806;28;20139;-71
2022/01/08 11:53:23;;;;;;;2.75;1.27;;;;;;;;;;5083366;28;20043;-70
2022/01/08 11:55:49;;;;;;;2.47;1.05;;;;;;;;;;5083196;28;20112;-71
2022/01/08 11:58:26;;;;;;;1.27;0.73;;;;;;;;;;5048189;28;20041;-72
2022/01/08 12:00:59;;;;;;;2.10;1.38;;;;;;;;;;5048345;28;20395;-71
2022/01/08 12:03:24;;;;;;;2.20;1.55;;;;;;;;;;5048598;28;20046;-71
2022/01/08 12:05:50;;;;;;;0.68;0.63;;;;;;;;;;5083586;28;20024;-73
2022/01/08 12:08:16;;;;;;;3.45;1.85;;;;;;;;;;5084873;28;20399;-73
2022/01/08 12:11:01;;;;;;;2.08;1.40;;;;;;;;;;5066618;28;20031;-72
2022/01/08 12:13:44;;;;;;;1.92;1.08;;;;;;;;;;5070680;28;20037;-73
2022/01/08 12:16:28;;;;;;;2.10;1.52;;;;;;;;;;5036202;28;20043;-73
2022/01/08 12:18:54;;;;;;;1.17;0.85;;;;;;;;;;5070895;28;20056;-74
2022/01/08 12:21:30;;;;;;;2.33;1.48;;;;;;;;;;5070725;28;20443;-73
2022/01/08 12:23:55;;;;;;;1.15;0.80;;;;;;;;;;5036385;28;20076;-72
2022/01/08 12:26:21;;;;;;;0.50;0.43;;;;;;;;;;5070472;28;20075;-72
2022/01/08 12:28:46;;;;;;;2.63;1.45;;;;;;;;;;5070662;28;20037;-71
2022/01/08 12:31:30;;;;;;;0.93;0.82;;;;;;;;;;5070779;28;20119;-73
2022/01/08 12:34:16;;;;;;;2.47;1.35;;;;;;;;;;5036153;28;20041;-70
2022/01/08 12:36:51;;;;;;;0.30;0.30;;;;;;;;;;5070382;28;20104;-73
2022/01/08 12:39:16;;;;;;;0.30;0.30;;;;;;;;;;5052485;28;20396;-72
2022/01/08 12:41:42;;;;;;;1.13;0.60;;;;;;;;;;5052786;28;20040;-73
2022/01/08 12:44:27;;;;;;;1.25;1.00;;;;;;;;;;5070655;28;20537;-70
2022/01/08 12:46:52;;;;;;;1.40;1.02;;;;;;;;;;5035824;28;20123;-73
2022/01/08 12:49:18;;;;;;;0.30;0.30;;;;;;;;;;5070341;28;20104;-72
2022/01/08 12:51:49;;;;;;;0.60;0.60;;;;;;;;;;5070591;28;20033;-73
2022/01/08 12:54:17;;;;;;;0.20;0.20;;;;;;;;;;5052405;28;20033;-72
2022/01/08 12:56:47;;;;;;;1.38;0.93;;;;;;;;;;5035198;28;20403;-74
2022/01/08 12:59:12;;;;;;;1.15;1.05;;;;;;;;;;5035420;28;20645;-73
2022/01/08 13:01:40;;;;;;;0.60;0.60;;;;;;;;;;5052610;28;20044;-73
2022/01/08 13:04:14;;;;;;;1.25;0.45;;;;;;;;;;5070498;28;20025;-73
2022/01/08 13:06:40;;;;;;;1.02;0.77;;;;;;;;;;5035174;28;20041;-73
2022/01/08 13:09:07;;;;;;;9.07;1.70;;;;;;;;;;5070451;28;20101;-72
2022/01/08 13:11:34;;;;;;;0.75;0.50;;;;;;;;;;5035226;28;20033;-73
2022/01/08 13:14:04;;;;;;;0.30;0.30;;;;;;;;;;5035212;28;20025;-74
2022/01/08 13:16:43;;;;;;;0.30;0.30;;;;;;;;;;5069973;28;20032;-72
2022/01/08 13:19:10;;;;;;;1.17;0.90;;;;;;;;;;5035268;28;20043;-72
2022/01/08 13:21:37;;;;;;;0.50;0.50;;;;;;;;;;5051989;28;20041;-70
2022/01/08 13:24:15;;;;;;;0.30;0.30;;;;;;;;;;5034646;28;20037;-73
2022/01/08 13:26:42;;;;;;;0.30;0.30;;;;;;;;;;5069592;28;20037;-73
2022/01/08 13:29:26;;;;;;;0.65;0.65;;;;;;;;;;5035444;28;20024;-71
2022/01/08 13:31:56;;;;;;;0.28;0.28;;;;;;;;;;5069897;28;20485;-71
2022/01/08 13:34:23;;;;;;;0.50;0.50;;;;;;;;;;5035218;28;20024;-72
2022/01/08 13:37:03;;;;;;;1.67;1.08;;;;;;;;;;5069431;28;20127;-71
2022/01/08 13:39:28;;;;;;;;;;;;;;;;;;5069970;28;20024;-73
2022/01/08 13:42:07;;;;;;;0.50;0.50;;;;;;;;;;5069775;28;20288;-73
2022/01/08 13:44:33;;;;;;;;;;;;;;;;;;5035271;28;20274;-72
2022/01/08 13:46:58;;;;;;;0.87;0.87;;;;;;;;;;5069398;28;20260;-73
2022/01/08 13:49:24;;;;;;;2.30;0.93;;;;;;;;;;5069417;28;20133;-72
2022/01/08 13:51:49;;;;;;;4.00;1.27;;;;;;;;;;5069414;28;20257;-74
2022/01/08 13:54:14;;;;;;;0.60;0.60;;;;;;;;;;5069370;28;20025;-74
2022/01/08 13:56:42;;;;;;;0.35;0.35;;;;;;;;;;5069117;28;20029;-73
2022/01/08 13:59:09;;;;;;;2.58;1.38;;;;;;;;;;5034834;28;20041;-73
2022/01/08 14:01:55;;;;;;;0.55;0.55;;;;;;;;;;5051228;28;20024;-69
2022/01/08 14:04:21;;;;;;;0.65;0.50;;;;;;;;;;5051504;28;20043;-73
2022/01/08 14:06:46;;;;;;;0.47;0.40;;;;;;;;;;5069039;28;20028;-74
2022/01/08 14:09:17;;;;;;;1.42;0.60;;;;;;;;;;5069247;28;20025;-74
2022/01/08 14:11:44;;;;;;;0.68;0.68;;;;;;;;;;5034730;28;20033;-75
2022/01/08 14:14:17;;;;;;;1.75;0.75;;;;;;;;;;5034548;28;20044;-73
2022/01/08 14:16:42;;;;;;;1.67;0.95;;;;;;;;;;5050871;28;20039;-72
2022/01/08 14:19:11;;;;;;;0.38;0.35;;;;;;;;;;5069340;28;20473;-68
2022/01/08 14:21:40;;;;;;;4.22;2.05;;;;;;;;;;5069204;28;20032;-73
2022/01/08 14:24:13;;;;;;;0.63;0.55;;;;;;;;;;5034419;28;20028;-72
2022/01/08 14:26:39;;;;;;;0.95;0.65;;;;;;;;;;5034117;28;20392;-71
2022/01/08 14:29:11;;;;;;;0.63;0.52;;;;;;;;;;5069028;28;20024;-73
2022/01/08 14:31:37;;;;;;;1.45;1.15;;;;;;;;;;5051057;28;20054;-72
2022/01/08 14:34:08;;;;;;;1.85;1.17;;;;;;;;;;5068883;28;20111;-74
2022/01/08 14:36:41;;;;;;;0.30;0.30;;;;;;;;;;5068460;28;20032;-73
2022/01/08 14:39:07;;;;;;;0.40;0.40;;;;;;;;;;5068810;28;20114;-73
2022/01/08 14:41:33;;;;;;;0.30;0.30;;;;;;;;;;5068533;28;20064;-73
2022/01/08 14:44:03;;;;;;;2.60;0.85;;;;;;;;;;5037219;28;20043;-73
2022/01/08 14:46:30;;;;;;;0.22;0.22;;;;;;;;;;5041866;28;20043;-73
2022/01/08 14:48:55;;;;;;;0.28;0.28;;;;;;;;;;5068281;28;20704;-73
2022/01/08 14:51:20;;;;;;;0.30;0.28;;;;;;;;;;5068470;28;20032;-74
2022/01/08 14:53:46;;;;;;;0.45;0.30;;;;;;;;;;5068400;28;20021;-72
2022/01/08 14:56:12;;;;;;;0.32;0.32;;;;;;;;;;5068624;28;20068;-73
2022/01/08 14:58:38;;;;;;;0.20;0.20;;;;;;;;;;5068506;28;20640;-73
2022/01/08 15:01:04;;;;;;;0.73;0.52;;;;;;;;;;5050525;28;20089;-74
2022/01/08 15:03:30;;;;;;;0.20;0.20;;;;;;;;;;5068210;28;20044;-73
2022/01/08 15:05:55;;;;;;;0.60;0.40;;;;;;;;;;5050425;28;20039;-73
2022/01/08 15:08:21;;;;;;;0.75;0.50;;;;;;;;;;5068703;28;20035;-70
2022/01/08 15:10:46;;;;;;;0.52;0.52;;;;;;;;;;5068071;28;20099;-73
2022/01/08 15:13:12;;;;;;;0.20;0.20;;;;;;;;;;5068312;28;20448;-74
2022/01/08 15:15:37;;;;;;;0.20;0.20;;;;;;;;;;5068057;28;20096;-70
2022/01/08 15:18:02;;;;;;;0.20;0.20;;;;;;;;;;5050549;28;20048;-74
2022/01/08 15:20:28;;;;;;;0.65;0.63;;;;;;;;;;5068120;28;20495;-74
2022/01/08 15:22:53;;;;;;;0.30;0.30;;;;;;;;;;5067795;28;20031;-73
2022/01/08 15:25:19;;;;;;;0.30;0.30;;;;;;;;;;5068202;28;20045;-70
2022/01/08 15:27:46;;;;;;;0.45;0.40;;;;;;;;;;5067980;28;20044;-74
2022/01/08 15:30:12;;;;;;;0.90;0.65;;;;;;;;;;5033628;28;20025;-75
2022/01/08 15:32:37;;;;;;;1.02;0.73;;;;;;;;;;5067757;28;20081;-72
2022/01/08 15:35:04;;;;;;;0.80;0.57;;;;;;;;;;5068179;28;20125;-71
2022/01/08 15:37:29;;;;;;;0.20;0.20;;;;;;;;;;5033974;28;20048;-73
2022/01/08 15:39:54;;;;;;;0.52;0.52;;;;;;;;;;5067798;28;20045;-74
2022/01/08 15:42:20;;;;;;;0.40;0.40;;;;;;;;;;5067761;28;20036;-75
2022/01/08 15:44:45;;;;;;;3.13;1.38;;;;;;;;;;5049762;28;20033;-70
2022/01/08 15:47:11;;;;;;;2.22;1.15;;;;;;;;;;5069049;28;20153;-74
2022/01/08 15:49:38;;;;;;;0.75;0.65;;;;;;;;;;5071103;28;20531;-74
2022/01/08 15:52:03;;;;;;;1.42;1.25;;;;;;;;;;5071210;28;20037;-75
2022/01/08 15:54:29;;;;;;;2.47;0.80;;;;;;;;;;5040935;28;20039;-74
2022/01/08 15:56:54;;;;;;;0.65;0.65;;;;;;;;;;5042033;28;20039;-75
2022/01/08 15:59:20;;;;;;;0.93;0.75;;;;;;;;;;5035134;28;20086;-75
2022/01/08 16:01:45;;;;;;;0.50;0.50;;;;;;;;;;5051024;28;20076;-71
2022/01/08 16:04:11;;;;;;;0.55;0.55;;;;;;;;;;5057729;28;20028;-74
2022/01/08 16:06:37;;;;;;;1.25;0.77;;;;;;;;;;5090154;28;20043;-73
2022/01/08 16:09:03;;;;;;;0.68;0.68;;;;;;;;;;5065823;28;20479;-75
2022/01/08 16:11:28;;;;;;;0.20;0.20;;;;;;;;;;5090413;28;20034;-75
2022/01/08 16:13:53;;;;;;;2.35;2.15;;;;;;;;;;5055909;28;20084;-74
2022/01/08 16:16:20;;;;;;;0.20;0.20;;;;;;;;;;5090461;28;20023;-75
2022/01/08 16:18:46;;;;;;;0.20;0.20;;;;;;;;;;5054223;28;20028;-75
2022/01/08 16:21:12;;;;;;;0.20;0.20;;;;;;;;;;5088889;28;20039;-74
2022/01/08 16:23:37;;;;;;;0.88;0.88;;;;;;;;;;5089331;28;20088;-75